Time;durP1;ratioP1;P1;durP2;ratioP2;P2;SDS_P1;SDS_P2;PMS_P1;PMS_P2;Temp;Humidity;BMP_temperature;BMP_pressure;BME280_temperature;BME280_humidity;BME280_pressure;Samples;Min_cycle;Max_cycle;Signal;HPM_P1;HPM_P2
2020/12/17 00:00:23;;;;;;;48.75;20.35;;;5.70;99.10;;;;;;5062969;28;20176;-81
2020/12/17 00:02:49;;;;;;;37.83;18.17;;;5.70;99.10;;;;;;5063163;28;20181;-81
2020/12/17 00:05:15;;;;;;;50.33;19.30;;;5.70;99.10;;;;;;5064307;28;20204;-81
2020/12/17 00:07:41;;;;;;;44.92;17.92;;;5.70;99.10;;;;;;5064975;28;20450;-81
2020/12/17 00:10:09;;;;;;;44.38;19.77;;;5.60;99.10;;;;;;5064852;28;20169;-81
2020/12/17 00:12:40;;;;;;;38.92;19.38;;;5.70;99.10;;;;;;5067238;28;20169;-81
2020/12/17 00:15:08;;;;;;;49.75;19.58;;;5.60;99.10;;;;;;5066508;28;20278;-81
2020/12/17 00:17:41;;;;;;;32.72;17.08;;;5.60;99.10;;;;;;5066894;28;20184;-81
2020/12/17 00:20:07;;;;;;;41.03;19.17;;;5.60;99.10;;;;;;5066357;28;20172;-81
2020/12/17 00:22:38;;;;;;;39.35;19.02;;;5.60;99.10;;;;;;5066613;28;20172;-82
2020/12/17 00:25:05;;;;;;;34.95;15.82;;;5.50;99.10;;;;;;5066509;28;20683;-81
2020/12/17 00:27:31;;;;;;;48.95;19.45;;;5.50;99.10;;;;;;5066142;28;20238;-81
2020/12/17 00:29:57;;;;;;;51.43;19.00;;;5.40;99.10;;;;;;5067749;28;20180;-81
2020/12/17 00:32:23;;;;;;;41.23;16.83;;;5.50;99.10;;;;;;5066690;28;20415;-81
2020/12/17 00:34:48;;;;;;;35.53;17.20;;;5.50;99.10;;;;;;5065694;28;20172;-82
2020/12/17 00:37:14;;;;;;;37.80;17.90;;;5.50;99.10;;;;;;5066987;28;20419;-82
2020/12/17 00:39:40;;;;;;;35.27;16.70;;;5.40;99.10;;;;;;5067111;28;20179;-81
2020/12/17 00:42:06;;;;;;;43.83;18.27;;;5.40;99.10;;;;;;5066631;28;20174;-81
2020/12/17 00:44:31;;;;;;;40.70;18.47;;;5.40;99.10;;;;;;5067365;28;20457;-80
2020/12/17 00:46:57;;;;;;;37.57;17.80;;;5.40;99.10;;;;;;5067971;28;20242;-79
2020/12/17 00:49:23;;;;;;;39.53;18.07;;;5.40;99.10;;;;;;5065475;28;20403;-80
2020/12/17 00:51:49;;;;;;;38.43;16.67;;;5.40;99.10;;;;;;5063043;28;21026;-80
2020/12/17 00:54:14;;;;;;;36.97;16.77;;;5.40;99.10;;;;;;5063585;28;20199;-80
2020/12/17 00:56:47;;;;;;;36.57;17.83;;;5.30;99.10;;;;;;5064193;28;20438;-80
2020/12/17 00:59:13;;;;;;;33.63;16.15;;;5.30;99.10;;;;;;5066950;28;20415;-80
2020/12/17 01:01:40;;;;;;;40.53;17.88;;;5.30;99.10;;;;;;5067018;28;20172;-80
2020/12/17 01:04:06;;;;;;;33.58;16.00;;;5.30;99.10;;;;;;5066499;28;20240;-80
2020/12/17 01:06:32;;;;;;;37.63;16.33;;;5.20;99.10;;;;;;5066042;28;20211;-80
2020/12/17 01:08:57;;;;;;;34.17;15.40;;;5.20;99.10;;;;;;5066580;28;20339;-80
2020/12/17 01:11:30;;;;;;;38.87;16.17;;;5.20;99.10;;;;;;5065539;28;20172;-79
2020/12/17 01:13:58;;;;;;;36.92;17.27;;;5.20;99.10;;;;;;5064987;28;20176;-79
2020/12/17 01:16:23;;;;;;;33.25;15.88;;;5.20;99.10;;;;;;5127401;23;20213;-84
2020/12/17 01:18:50;;;;;;;39.97;15.20;;;5.20;99.10;;;;;;5036418;28;20181;-85
2020/12/17 01:21:17;;;;;;;41.53;18.55;;;5.10;99.10;;;;;;5036346;28;20419;-86
2020/12/17 01:23:43;;;;;;;36.60;16.00;;;5.00;99.10;;;;;;5036580;28;20576;-86
2020/12/17 01:26:09;;;;;;;37.42;17.67;;;5.00;99.10;;;;;;5036415;28;20269;-86
2020/12/17 01:28:39;;;;;;;47.30;18.88;;;5.00;99.10;;;;;;5036475;28;20605;-87
2020/12/17 01:31:13;;;;;;;38.35;16.75;;;4.90;99.10;;;;;;5036488;28;20189;-86
2020/12/17 01:33:41;;;;;;;40.20;19.95;;;4.90;99.10;;;;;;5036357;28;20180;-86
2020/12/17 01:36:10;;;;;;;40.72;18.52;;;4.80;99.10;;;;;;5036066;28;20255;-86
2020/12/17 01:38:38;;;;;;;34.70;16.05;;;4.80;99.10;;;;;;5036361;28;20177;-86
2020/12/17 01:41:05;;;;;;;35.60;16.02;;;4.70;99.10;;;;;;5036178;28;20188;-86
2020/12/17 01:43:45;;;;;;;37.13;16.45;;;4.70;99.10;;;;;;5035956;28;20173;-86
2020/12/17 01:46:14;;;;;;;44.65;18.13;;;4.70;99.10;;;;;;5035875;28;20205;-85
2020/12/17 01:48:41;;;;;;;42.78;17.52;;;4.60;99.10;;;;;;5036126;28;20211;-86
2020/12/17 01:51:08;;;;;;;41.88;18.77;;;4.60;99.10;;;;;;5035815;28;20173;-86
2020/12/17 01:53:41;;;;;;;36.92;16.70;;;4.50;99.10;;;;;;5035969;28;20200;-87
2020/12/17 01:56:21;;;;;;;40.13;16.75;;;4.50;99.10;;;;;;5035825;28;20668;-86
2020/12/17 01:59:23;;;;;;;36.20;17.40;;;4.50;99.10;;;;;;5035892;28;20177;-85
2020/12/17 02:01:51;;;;;;;33.17;16.13;;;4.60;99.10;;;;;;5036032;28;20571;-86
2020/12/17 02:04:22;;;;;;;35.15;15.48;;;4.60;99.10;;;;;;5035904;28;20203;-86
2020/12/17 02:06:48;;;;;;;36.05;15.82;;;4.70;99.10;;;;;;5035908;28;20205;-86
2020/12/17 02:09:15;;;;;;;36.00;16.45;;;4.70;99.10;;;;;;5035723;28;20223;-86
2020/12/17 02:11:50;;;;;;;36.33;16.55;;;4.70;99.10;;;;;;5035772;28;20655;-86
2020/12/17 02:14:16;;;;;;;28.52;17.10;;;4.70;99.10;;;;;;5035598;28;20164;-86
2020/12/17 02:16:41;;;;;;;35.37;14.97;;;4.70;99.10;;;;;;5035498;28;20567;-86
2020/12/17 02:19:07;;;;;;;30.07;14.40;;;4.70;99.10;;;;;;5035263;28;20499;-86
2020/12/17 02:21:33;;;;;;;30.80;14.80;;;4.60;99.10;;;;;;5035324;28;20720;-86
2020/12/17 02:24:00;;;;;;;31.80;15.60;;;4.60;99.10;;;;;;5035662;28;20419;-86
2020/12/17 02:26:26;;;;;;;33.33;15.50;;;4.60;99.10;;;;;;5039107;28;20295;-86
2020/12/17 02:28:51;;;;;;;29.73;15.53;;;4.60;99.10;;;;;;5039552;28;20653;-86
2020/12/17 02:31:17;;;;;;;33.97;14.33;;;4.60;99.10;;;;;;5039355;28;20446;-86
2020/12/17 02:33:43;;;;;;;37.63;16.20;;;4.70;99.10;;;;;;5039572;28;20411;-86
2020/12/17 02:36:09;;;;;;;28.97;15.20;;;4.70;99.10;;;;;;5039662;28;20871;-86
2020/12/17 02:38:34;;;;;;;30.20;14.07;;;4.70;99.10;;;;;;5039823;28;20264;-86
2020/12/17 02:41:00;;;;;;;33.03;15.43;;;4.70;99.10;;;;;;5039138;28;20453;-86
2020/12/17 02:43:26;;;;;;;34.27;15.67;;;4.60;99.10;;;;;;5039308;28;20256;-86
2020/12/17 02:45:52;;;;;;;46.17;18.53;;;4.60;99.10;;;;;;5039258;28;20917;-86
2020/12/17 02:48:19;;;;;;;43.67;20.40;;;4.50;99.10;;;;;;5039375;28;20827;-86
2020/12/17 02:50:44;;;;;;;38.97;20.00;;;4.40;99.10;;;;;;5039107;28;20176;-86
2020/12/17 02:53:11;;;;;;;43.73;21.70;;;4.50;99.10;;;;;;5038955;28;20170;-86
2020/12/17 02:55:37;;;;;;;43.60;19.48;;;4.50;99.10;;;;;;5039054;28;20437;-86
2020/12/17 02:58:04;;;;;;;35.80;17.42;;;4.40;99.10;;;;;;5039183;28;20173;-86
2020/12/17 03:00:30;;;;;;;42.38;17.45;;;4.20;99.10;;;;;;5039261;28;20177;-86
2020/12/17 03:02:56;;;;;;;37.33;17.70;;;4.20;99.10;;;;;;5038613;28;20181;-86
2020/12/17 03:05:22;;;;;;;32.70;16.00;;;4.20;99.10;;;;;;5038244;28;20892;-86
2020/12/17 03:07:48;;;;;;;35.83;17.03;;;4.20;99.10;;;;;;5038594;28;20645;-86
2020/12/17 03:10:17;;;;;;;37.50;18.10;;;4.30;99.10;;;;;;5038696;28;20412;-86
2020/12/17 03:12:43;;;;;;;33.13;16.20;;;4.20;99.10;;;;;;5038524;28;20420;-86
2020/12/17 03:15:10;;;;;;;44.75;19.02;;;4.20;99.10;;;;;;5038469;28;20741;-86
2020/12/17 03:17:37;;;;;;;32.67;15.77;;;4.20;99.10;;;;;;5038376;28;20189;-86
2020/12/17 03:20:07;;;;;;;36.03;16.65;;;4.20;99.10;;;;;;5038345;28;20659;-86
2020/12/17 03:22:33;;;;;;;35.33;16.08;;;4.10;99.10;;;;;;5038237;28;20177;-86
2020/12/17 03:25:00;;;;;;;32.47;15.70;;;4.10;99.10;;;;;;5038184;28;20197;-87
2020/12/17 03:27:26;;;;;;;37.67;17.00;;;4.10;99.10;;;;;;5038207;28;20178;-86
2020/12/17 03:29:52;;;;;;;33.53;15.43;;;4.10;99.10;;;;;;5038259;28;20587;-86
2020/12/17 03:32:18;;;;;;;34.70;17.50;;;4.10;99.10;;;;;;5037867;28;20173;-86
2020/12/17 03:34:43;;;;;;;31.50;16.50;;;4.10;99.10;;;;;;5038459;28;20779;-86
2020/12/17 03:37:09;;;;;;;29.47;15.20;;;4.10;99.10;;;;;;5037269;28;20427;-86
2020/12/17 03:39:36;;;;;;;31.83;14.30;;;4.10;99.10;;;;;;5038366;28;20723;-86
2020/12/17 03:42:03;;;;;;;32.50;17.42;;;4.10;99.10;;;;;;5037739;28;20170;-86
2020/12/17 03:44:29;;;;;;;39.92;16.95;;;4.00;99.10;;;;;;5038085;28;20173;-86
2020/12/17 03:46:54;;;;;;;33.03;16.90;;;4.00;99.10;;;;;;5037774;28;20268;-86
2020/12/17 03:49:20;;;;;;;34.60;15.17;;;4.00;99.10;;;;;;5037790;28;20415;-86
2020/12/17 03:51:46;;;;;;;27.88;14.63;;;3.90;99.10;;;;;;5037788;28;20407;-86
2020/12/17 03:54:12;;;;;;;29.93;15.63;;;3.90;99.10;;;;;;5037844;28;20169;-86
2020/12/17 03:56:38;;;;;;;40.00;17.60;;;3.90;99.10;;;;;;5037849;28;20469;-86
2020/12/17 03:59:04;;;;;;;28.20;14.30;;;3.90;99.10;;;;;;5037631;28;20422;-86
2020/12/17 04:01:29;;;;;;;33.20;14.53;;;3.90;99.10;;;;;;5037572;28;20177;-86
2020/12/17 04:03:55;;;;;;;29.03;14.27;;;3.90;99.10;;;;;;5037642;28;20178;-86
2020/12/17 04:06:21;;;;;;;31.23;15.17;;;3.90;99.10;;;;;;5037365;28;20232;-86
2020/12/17 04:08:47;;;;;;;38.08;16.10;;;3.80;99.10;;;;;;5037528;28;20408;-86
2020/12/17 04:11:13;;;;;;;31.07;13.57;;;3.80;99.10;;;;;;5038044;28;20196;-86
2020/12/17 04:13:39;;;;;;;27.40;13.23;;;3.80;99.10;;;;;;5037611;28;20443;-86
2020/12/17 04:16:05;;;;;;;34.10;15.60;;;3.90;99.10;;;;;;5037633;28;20963;-87
2020/12/17 04:18:31;;;;;;;35.17;15.65;;;3.90;99.10;;;;;;5037677;28;20216;-86
2020/12/17 04:20:57;;;;;;;30.83;15.40;;;3.80;99.10;;;;;;5037735;28;20173;-86
2020/12/17 04:23:23;;;;;;;31.42;12.65;;;3.80;99.10;;;;;;5038149;28;20656;-86
2020/12/17 04:25:49;;;;;;;29.15;13.52;;;3.80;99.10;;;;;;5037442;28;20243;-86
2020/12/17 04:28:15;;;;;;;27.75;13.43;;;3.80;99.10;;;;;;5055358;28;20161;-86
2020/12/17 04:30:40;;;;;;;30.20;13.60;;;3.80;99.10;;;;;;5037265;28;20609;-86
2020/12/17 04:33:06;;;;;;;29.03;13.80;;;3.80;99.10;;;;;;5037534;28;20416;-86
2020/12/17 04:35:32;;;;;;;32.23;12.87;;;3.90;99.10;;;;;;5037238;28;20193;-86
2020/12/17 04:37:58;;;;;;;26.03;13.33;;;3.90;99.10;;;;;;5037246;28;20420;-86
2020/12/17 04:40:24;;;;;;;26.92;13.68;;;3.90;99.10;;;;;;5037173;28;20490;-86
2020/12/17 04:42:51;;;;;;;28.63;11.88;;;3.90;99.10;;;;;;5037729;28;20512;-86
2020/12/17 04:45:18;;;;;;;23.77;11.77;;;3.80;99.10;;;;;;5037246;28;20213;-86
2020/12/17 04:47:48;;;;;;;22.75;10.70;;;3.90;99.10;;;;;;5036886;28;20264;-86
2020/12/17 04:50:15;;;;;;;21.58;11.60;;;3.90;99.10;;;;;;5037244;28;20176;-85
2020/12/17 04:52:42;;;;;;;20.05;11.70;;;3.90;99.10;;;;;;5037201;28;20689;-86
2020/12/17 04:55:10;;;;;;;22.05;11.95;;;3.90;99.10;;;;;;5037153;28;20627;-86
2020/12/17 04:57:44;;;;;;;21.50;12.32;;;3.80;99.10;;;;;;5037021;28;20258;-85
2020/12/17 05:00:11;;;;;;;22.52;11.38;;;3.80;99.10;;;;;;5037278;28;20624;-86
2020/12/17 05:02:37;;;;;;;22.45;11.63;;;3.80;99.10;;;;;;5036952;28;20181;-86
2020/12/17 05:05:03;;;;;;;22.67;10.63;;;3.80;99.10;;;;;;5036906;28;20196;-85
2020/12/17 05:07:29;;;;;;;25.67;12.40;;;3.80;99.10;;;;;;5037064;28;20404;-86
2020/12/17 05:09:55;;;;;;;22.27;11.33;;;3.70;99.10;;;;;;5036404;28;20192;-86
2020/12/17 05:12:20;;;;;;;19.37;11.00;;;3.80;99.10;;;;;;5036766;28;20215;-85
2020/12/17 05:14:48;;;;;;;21.60;12.00;;;3.80;99.10;;;;;;5037180;28;20169;-86
2020/12/17 05:17:14;;;;;;;20.58;10.57;;;3.80;99.10;;;;;;5036880;28;20486;-86
2020/12/17 05:19:43;;;;;;;21.60;10.70;;;3.70;99.10;;;;;;5036746;28;20704;-87
2020/12/17 05:22:12;;;;;;;23.88;11.70;;;3.60;99.10;;;;;;5036444;28;20223;-87
2020/12/17 05:24:38;;;;;;;28.95;13.40;;;3.60;99.10;;;;;;5036630;28;20168;-87
2020/12/17 05:27:03;;;;;;;25.70;11.03;;;3.50;99.10;;;;;;5036375;28;20777;-86
2020/12/17 05:29:29;;;;;;;23.70;12.57;;;3.50;99.10;;;;;;5036746;28;20422;-86
2020/12/17 05:31:55;;;;;;;22.17;12.00;;;3.40;99.10;;;;;;5036657;28;20477;-87
2020/12/17 05:34:21;;;;;;;24.70;11.37;;;3.40;99.10;;;;;;5036269;28;20787;-86
2020/12/17 05:36:48;;;;;;;21.77;11.20;;;3.40;99.10;;;;;;5036055;28;20442;-85
2020/12/17 05:39:22;;;;;;;20.98;11.85;;;3.40;99.10;;;;;;5036570;28;20177;-85
2020/12/17 05:41:49;;;;;;;25.48;12.90;;;3.40;99.10;;;;;;5036482;28;20299;-85
2020/12/17 05:44:26;;;;;;;27.42;14.02;;;3.40;99.10;;;;;;5036322;28;20178;-85
2020/12/17 05:46:53;;;;;;;27.98;13.40;;;3.30;99.10;;;;;;5038007;28;20746;-85
2020/12/17 05:49:30;;;;;;;36.45;14.05;;;3.40;99.10;;;;;;5038149;28;20223;-84
2020/12/17 05:52:11;;;;;;;36.30;14.68;;;3.40;99.10;;;;;;5037898;28;20180;-84
2020/12/17 05:54:50;;;;;;;26.20;12.88;;;3.40;99.10;;;;;;5038999;28;20259;-84
2020/12/17 05:57:15;;;;;;;33.78;14.07;;;3.40;99.10;;;;;;5038650;28;20218;-84
2020/12/17 05:59:53;;;;;;;36.60;15.10;;;3.40;99.10;;;;;;5038177;28;20637;-85
2020/12/17 06:02:29;;;;;;;32.85;15.75;;;3.40;99.10;;;;;;5037275;28;20169;-85
2020/12/17 06:05:14;;;;;;;30.27;14.98;;;3.40;99.10;;;;;;5036216;28;20173;-85
2020/12/17 06:07:48;;;;;;;37.38;14.82;;;3.40;99.10;;;;;;5036050;28;20629;-85
2020/12/17 06:10:40;;;;;;;32.90;15.90;;;3.40;99.10;;;;;;5037079;28;20160;-85
2020/12/17 06:13:06;;;;;;;24.08;12.38;;;3.40;99.10;;;;;;5036019;28;20276;-85
2020/12/17 06:15:32;;;;;;;32.20;15.57;;;3.40;99.10;;;;;;5036478;28;20230;-84
2020/12/17 06:18:02;;;;;;;36.95;13.95;;;3.40;99.10;;;;;;5036797;28;20193;-85
2020/12/17 06:20:31;;;;;;;32.47;14.07;;;3.40;99.10;;;;;;5037283;28;20516;-84
2020/12/17 06:23:02;;;;;;;33.60;14.40;;;3.40;99.10;;;;;;5037923;28;20197;-85
2020/12/17 06:25:31;;;;;;;23.08;12.77;;;3.40;99.10;;;;;;5037412;28;20209;-85
2020/12/17 06:27:57;;;;;;;33.33;14.70;;;3.40;99.10;;;;;;5036527;28;20201;-85
2020/12/17 06:30:26;;;;;;;30.25;13.70;;;3.30;99.10;;;;;;5036024;28;20629;-85
2020/12/17 06:33:00;;;;;;;34.42;15.52;;;3.30;99.10;;;;;;5035662;28;20173;-85
2020/12/17 06:35:52;;;;;;;38.00;16.20;;;3.30;99.10;;;;;;5036161;28;20203;-85
2020/12/17 06:38:23;;;;;;;34.28;15.30;;;3.30;99.10;;;;;;5036124;28;20177;-85
2020/12/17 06:40:49;;;;;;;30.55;14.63;;;3.30;99.10;;;;;;5036783;28;20173;-85
2020/12/17 06:43:31;;;;;;;32.77;15.47;;;3.30;99.10;;;;;;5036971;28;20243;-85
2020/12/17 06:45:58;;;;;;;34.53;14.38;;;3.30;99.10;;;;;;5035943;28;20462;-85
2020/12/17 06:48:38;;;;;;;34.45;13.88;;;3.30;99.10;;;;;;5036567;28;20222;-85
2020/12/17 06:51:39;;;;;;;31.60;13.65;;;3.30;99.10;;;;;;5036413;28;20517;-85
2020/12/17 06:54:18;;;;;;;33.03;15.18;;;3.30;99.10;;;;;;5037886;28;20184;-84
2020/12/17 06:57:12;;;;;;;27.48;14.60;;;3.40;99.10;;;;;;5036838;28;20193;-84
2020/12/17 06:59:43;;;;;;;31.17;15.55;;;3.40;99.10;;;;;;5037029;28;20648;-84
2020/12/17 07:02:17;;;;;;;25.05;12.93;;;3.30;99.10;;;;;;5037137;28;20196;-84
2020/12/17 07:04:50;;;;;;;27.27;13.00;;;3.30;99.10;;;;;;5037877;28;20181;-84
2020/12/17 07:07:22;;;;;;;24.60;12.88;;;3.40;99.10;;;;;;5036915;28;20210;-85
2020/12/17 07:09:52;;;;;;;27.25;13.73;;;3.40;99.10;;;;;;5036410;28;20180;-85
2020/12/17 07:12:37;;;;;;;29.52;15.27;;;3.40;99.10;;;;;;5038483;28;20169;-84
2020/12/17 07:15:05;;;;;;;29.73;13.45;;;3.50;99.10;;;;;;5039776;28;20162;-84
2020/12/17 07:17:31;;;;;;;29.80;14.20;;;3.50;99.10;;;;;;5111757;23;20221;-82
2020/12/17 07:19:57;;;;;;;29.33;13.90;;;3.60;99.10;;;;;;5049604;28;20602;-82
2020/12/17 07:22:23;;;;;;;33.25;14.18;;;3.60;99.10;;;;;;5048471;28;20177;-82
2020/12/17 07:24:53;;;;;;;32.07;14.43;;;3.60;99.10;;;;;;5048665;28;20165;-82
2020/12/17 07:27:22;;;;;;;30.67;14.15;;;3.60;99.10;;;;;;5048789;28;20465;-82
2020/12/17 07:29:58;;;;;;;26.85;14.80;;;3.70;99.10;;;;;;5048612;28;20170;-82
2020/12/17 07:32:45;;;;;;;29.80;13.07;;;3.70;99.10;;;;;;5047754;28;20191;-82
2020/12/17 07:35:10;;;;;;;34.55;13.27;;;3.80;99.10;;;;;;5048633;28;20180;-82
2020/12/17 07:37:56;;;;;;;29.20;12.77;;;3.90;99.10;;;;;;5049335;28;20241;-82
2020/12/17 07:40:35;;;;;;;29.83;13.82;;;3.90;99.10;;;;;;5048760;28;20165;-82
2020/12/17 07:43:06;;;;;;;31.75;11.70;;;4.00;99.10;;;;;;5048421;28;20241;-82
2020/12/17 07:45:44;;;;;;;28.63;14.15;;;4.00;99.10;;;;;;5049266;28;20185;-82
2020/12/17 07:48:35;;;;;;;24.65;11.27;;;4.00;99.10;;;;;;5048202;28;20325;-82
2020/12/17 07:51:13;;;;;;;22.77;12.15;;;4.10;99.10;;;;;;5049053;28;20173;-83
2020/12/17 07:53:40;;;;;;;31.08;13.32;;;4.10;99.10;;;;;;5048541;28;20263;-82
2020/12/17 07:56:09;;;;;;;26.60;12.80;;;4.10;99.10;;;;;;5047678;28;20193;-83
2020/12/17 07:58:38;;;;;;;28.58;12.35;;;4.20;99.10;;;;;;5048335;28;20751;-83
2020/12/17 08:01:05;;;;;;;29.08;13.35;;;4.30;99.10;;;;;;5047725;28;20187;-83
2020/12/17 08:03:44;;;;;;;32.03;12.80;;;4.30;99.10;;;;;;5048085;28;20275;-82
2020/12/17 08:06:12;;;;;;;28.42;12.68;;;4.30;99.10;;;;;;5047795;28;20197;-82
2020/12/17 08:08:39;;;;;;;28.77;10.02;;;4.40;99.10;;;;;;5048377;28;20600;-83
2020/12/17 08:11:06;;;;;;;29.23;12.18;;;4.40;99.10;;;;;;5046156;28;20199;-82
2020/12/17 08:13:32;;;;;;;21.75;10.65;;;4.50;99.10;;;;;;5047069;28;20248;-83
2020/12/17 08:16:04;;;;;;;27.63;11.35;;;4.50;99.10;;;;;;5045623;28;20239;-82
2020/12/17 08:18:34;;;;;;;20.33;10.88;;;4.50;99.10;;;;;;5044910;28;20189;-82
2020/12/17 08:21:11;;;;;;;27.08;11.55;;;4.60;99.10;;;;;;5044924;28;20165;-82
2020/12/17 08:23:44;;;;;;;33.17;12.10;;;4.70;99.10;;;;;;5044545;28;20200;-82
2020/12/17 08:26:12;;;;;;;21.00;10.48;;;4.70;99.10;;;;;;5043874;28;20209;-82
2020/12/17 08:28:40;;;;;;;26.42;12.90;;;4.80;99.10;;;;;;5043250;28;20173;-83
2020/12/17 08:31:10;;;;;;;31.05;11.52;;;4.80;99.10;;;;;;5043631;28;20176;-82
2020/12/17 08:33:47;;;;;;;23.35;10.75;;;4.80;99.10;;;;;;5044678;28;20177;-83
2020/12/17 08:36:17;;;;;;;23.10;11.88;;;4.90;99.10;;;;;;5045239;28;20193;-82
2020/12/17 08:38:56;;;;;;;30.30;12.48;;;5.00;99.10;;;;;;5043131;28;20181;-83
2020/12/17 08:41:31;;;;;;;31.75;10.75;;;5.00;99.10;;;;;;5043779;28;20162;-83
2020/12/17 08:44:01;;;;;;;23.00;10.55;;;5.00;99.10;;;;;;5044177;28;20172;-83
2020/12/17 08:46:30;;;;;;;29.20;11.50;;;5.10;99.10;;;;;;5047431;28;20216;-82
2020/12/17 08:48:57;;;;;;;27.92;11.93;;;5.10;99.10;;;;;;5047706;28;20649;-82
2020/12/17 08:51:23;;;;;;;27.05;11.90;;;5.20;99.10;;;;;;5047185;28;20804;-83
2020/12/17 08:53:49;;;;;;;25.30;12.07;;;5.20;99.10;;;;;;5046179;28;20576;-81
2020/12/17 08:56:17;;;;;;;22.70;11.60;;;5.20;99.10;;;;;;5046773;28;20288;-81
2020/12/17 08:59:00;;;;;;;32.17;11.68;;;5.30;99.10;;;;;;5048208;28;20412;-81
2020/12/17 09:01:31;;;;;;;21.00;10.80;;;5.30;99.10;;;;;;5047568;28;20230;-80
2020/12/17 09:03:57;;;;;;;22.40;10.63;;;5.30;99.10;;;;;;5047706;28;20169;-80
2020/12/17 09:06:28;;;;;;;19.02;9.80;;;5.40;99.10;;;;;;5045735;28;20265;-83
2020/12/17 09:09:09;;;;;;;24.73;11.60;;;5.40;99.10;;;;;;5046285;28;20169;-83
2020/12/17 09:11:38;;;;;;;25.52;12.40;;;5.40;99.10;;;;;;5046267;28;20566;-83
2020/12/17 09:14:09;;;;;;;25.20;10.85;;;5.50;99.10;;;;;;5045987;28;20166;-83
2020/12/17 09:16:37;;;;;;;31.55;12.05;;;5.50;99.10;;;;;;5046247;28;20193;-83
2020/12/17 09:19:07;;;;;;;20.13;9.63;;;5.60;99.10;;;;;;5046613;28;20196;-81
2020/12/17 09:21:35;;;;;;;19.30;9.98;;;5.60;99.10;;;;;;5045326;28;20645;-81
2020/12/17 09:24:02;;;;;;;20.33;10.57;;;5.60;99.10;;;;;;5047005;28;20178;-79
2020/12/17 09:26:28;;;;;;;21.65;10.73;;;5.70;99.10;;;;;;5044794;28;20291;-80
2020/12/17 09:29:03;;;;;;;17.77;8.80;;;5.70;99.10;;;;;;5045745;28;20180;-80
2020/12/17 09:31:34;;;;;;;19.02;8.70;;;5.70;99.10;;;;;;5044376;28;20232;-81
2020/12/17 09:34:07;;;;;;;21.08;9.00;;;5.80;99.10;;;;;;5043946;28;20192;-80
2020/12/17 09:36:34;;;;;;;21.45;10.18;;;5.80;99.10;;;;;;5043142;28;20193;-81
2020/12/17 09:39:03;;;;;;;15.88;9.57;;;5.80;99.10;;;;;;5043922;28;20177;-81
2020/12/17 09:41:30;;;;;;;14.40;9.23;;;5.80;99.10;;;;;;5044224;28;20205;-81
2020/12/17 09:43:56;;;;;;;20.08;10.45;;;5.80;98.80;;;;;;5045077;28;20693;-80
2020/12/17 09:46:22;;;;;;;24.23;10.80;;;5.80;99.10;;;;;;5044007;28;20204;-81
2020/12/17 09:48:48;;;;;;;21.80;10.02;;;5.80;99.10;;;;;;5045176;28;20454;-81
2020/12/17 09:51:19;;;;;;;20.23;10.57;;;5.80;99.10;;;;;;5044288;28;20169;-80
2020/12/17 09:53:44;;;;;;;22.20;11.20;;;5.90;99.10;;;;;;5044321;28;20414;-79
2020/12/17 09:56:12;;;;;;;20.83;9.87;;;6.00;99.10;;;;;;5044463;28;20228;-79
2020/12/17 09:58:45;;;;;;;23.73;10.63;;;6.10;99.10;;;;;;5044735;28;20188;-79
2020/12/17 10:01:11;;;;;;;16.73;8.95;;;6.20;98.70;;;;;;5044229;28;20585;-79
2020/12/17 10:03:38;;;;;;;16.93;9.00;;;6.40;98.90;;;;;;5043962;28;20177;-79
2020/12/17 10:06:05;;;;;;;25.10;10.15;;;6.50;98.30;;;;;;5044045;28;20452;-79
2020/12/17 10:08:31;;;;;;;22.08;9.43;;;6.50;98.10;;;;;;5044249;28;20165;-79
2020/12/17 10:10:57;;;;;;;19.67;9.82;;;6.60;98.10;;;;;;5044021;28;20195;-79
2020/12/17 10:13:22;;;;;;;20.90;9.43;;;6.70;97.60;;;;;;5045499;28;20200;-79
2020/12/17 10:15:48;;;;;;;19.03;9.67;;;6.80;97.60;;;;;;5045148;28;20974;-80
2020/12/17 10:18:14;;;;;;;19.37;9.77;;;6.90;97.70;;;;;;5045175;28;20320;-80
2020/12/17 10:20:39;;;;;;;18.23;8.83;;;7.10;97.40;;;;;;5042624;28;20263;-80
2020/12/17 10:23:05;;;;;;;17.10;9.07;;;7.20;97.40;;;;;;5043119;28;20228;-80
2020/12/17 10:25:31;;;;;;;20.40;9.87;;;7.40;97.20;;;;;;5039266;28;20205;-79
2020/12/17 10:27:59;;;;;;;19.35;9.45;;;7.60;96.40;;;;;;5038192;28;20515;-79
2020/12/17 10:30:25;;;;;;;17.35;8.38;;;7.80;95.60;;;;;;5038626;28;20169;-79
2020/12/17 10:32:51;;;;;;;17.77;8.70;;;7.90;95.60;;;;;;5038072;28;20180;-79
2020/12/17 10:35:18;;;;;;;15.73;7.78;;;8.10;94.70;;;;;;5039001;28;20197;-79
2020/12/17 10:37:44;;;;;;;15.43;7.38;;;8.20;95.00;;;;;;5039809;28;20177;-79
2020/12/17 10:40:11;;;;;;;23.00;6.57;;;8.30;94.30;;;;;;5038387;28;20169;-79
2020/12/17 10:42:38;;;;;;;13.75;8.15;;;8.50;94.00;;;;;;5039302;28;20173;-79
2020/12/17 10:45:06;;;;;;;15.75;7.57;;;8.50;93.80;;;;;;5039238;28;20173;-80
2020/12/17 10:47:31;;;;;;;12.88;7.50;;;8.60;94.10;;;;;;5042144;28;20165;-80
2020/12/17 10:49:57;;;;;;;13.83;7.37;;;8.60;93.70;;;;;;5042667;28;20179;-81
2020/12/17 10:52:23;;;;;;;17.67;7.53;;;8.70;93.40;;;;;;5044583;28;20445;-80
2020/12/17 10:54:49;;;;;;;15.00;7.30;;;8.70;93.20;;;;;;5045552;28;20818;-80
2020/12/17 10:57:17;;;;;;;16.13;7.17;;;8.70;93.20;;;;;;5045716;28;20181;-79
2020/12/17 10:59:44;;;;;;;11.88;6.90;;;8.80;93.20;;;;;;5044965;28;20181;-80
2020/12/17 11:02:09;;;;;;;12.38;7.70;;;8.90;92.80;;;;;;5044441;28;20170;-80
2020/12/17 11:04:35;;;;;;;16.23;7.70;;;8.90;92.80;;;;;;5043681;28;20169;-80
2020/12/17 11:07:01;;;;;;;18.50;6.50;;;9.00;92.90;;;;;;5044549;28;20873;-80
2020/12/17 11:09:27;;;;;;;12.80;7.03;;;9.10;92.70;;;;;;5045018;28;20415;-80
2020/12/17 11:11:53;;;;;;;21.63;7.17;;;9.20;92.90;;;;;;5044314;28;20779;-80
2020/12/17 11:14:20;;;;;;;18.48;7.07;;;9.40;92.60;;;;;;5044836;28;20689;-80
2020/12/17 11:16:49;;;;;;;17.48;7.10;;;9.50;92.20;;;;;;5043668;28;20250;-80
2020/12/17 11:19:14;;;;;;;15.43;6.65;;;9.60;91.80;;;;;;5042725;28;20862;-80
2020/12/17 11:21:40;;;;;;;17.60;7.23;;;9.60;91.70;;;;;;5042573;28;20169;-80
2020/12/17 11:24:06;;;;;;;13.90;7.90;;;9.70;91.50;;;;;;5043621;28;20752;-80
2020/12/17 11:26:32;;;;;;;14.63;7.30;;;9.70;91.70;;;;;;5041853;28;20455;-79
2020/12/17 11:28:59;;;;;;;14.67;6.47;;;9.80;91.40;;;;;;5042433;28;20418;-79
2020/12/17 11:31:28;;;;;;;15.18;6.97;;;9.80;91.30;;;;;;5042980;28;20450;-79
2020/12/17 11:33:57;;;;;;;9.95;5.60;;;9.80;91.30;;;;;;5042801;28;20272;-79
2020/12/17 11:36:22;;;;;;;18.17;7.05;;;9.90;91.20;;;;;;5042611;28;20587;-79
2020/12/17 11:38:48;;;;;;;17.70;7.50;;;9.90;91.00;;;;;;5043650;28;20172;-79
2020/12/17 11:41:14;;;;;;;16.00;7.70;;;9.90;91.40;;;;;;5042691;28;20240;-79
2020/12/17 11:43:40;;;;;;;20.03;6.90;;;9.90;91.10;;;;;;5044097;28;20408;-79
2020/12/17 11:46:06;;;;;;;17.80;7.27;;;9.90;91.60;;;;;;5042479;28;20482;-80
2020/12/17 11:48:32;;;;;;;12.97;6.10;;;10.00;91.20;;;;;;5043288;28;20165;-79
2020/12/17 11:50:58;;;;;;;14.20;5.77;;;10.00;91.30;;;;;;5043402;28;20773;-79
2020/12/17 11:53:23;;;;;;;16.20;8.45;;;10.20;90.60;;;;;;5043247;28;20423;-82
2020/12/17 11:55:49;;;;;;;12.70;6.70;;;10.30;90.30;;;;;;5042515;28;20193;-82
2020/12/17 11:58:15;;;;;;;13.13;6.30;;;10.40;90.30;;;;;;5040198;28;20284;-82
2020/12/17 12:00:41;;;;;;;13.57;7.53;;;10.50;90.20;;;;;;5040145;28;20177;-80
2020/12/17 12:03:07;;;;;;;9.93;5.03;;;10.60;90.30;;;;;;5039829;28;20200;-80
2020/12/17 12:05:32;;;;;;;13.60;4.93;;;10.70;89.40;;;;;;5041314;28;20209;-83
2020/12/17 12:07:58;;;;;;;9.07;5.53;;;10.80;89.80;;;;;;5041948;28;20169;-82
2020/12/17 12:10:25;;;;;;;10.13;5.22;;;10.90;90.10;;;;;;5041890;28;20497;-82
2020/12/17 12:12:51;;;;;;;9.65;4.60;;;11.00;90.10;;;;;;5041498;28;20600;-82
2020/12/17 12:15:17;;;;;;;13.70;6.45;;;11.00;90.10;;;;;;5042233;28;20251;-82
2020/12/17 12:17:43;;;;;;;15.23;5.53;;;11.00;88.50;;;;;;5041732;28;20576;-82
2020/12/17 12:20:09;;;;;;;11.50;6.00;;;11.00;88.00;;;;;;5041275;28;20419;-82
2020/12/17 12:22:36;;;;;;;8.00;4.55;;;11.10;88.00;;;;;;5041422;28;20192;-82
2020/12/17 12:25:03;;;;;;;11.57;4.40;;;11.30;86.90;;;;;;5041962;28;20173;-82
2020/12/17 12:27:29;;;;;;;13.98;5.93;;;11.40;86.90;;;;;;5041830;28;20650;-82
2020/12/17 12:29:55;;;;;;;8.40;5.03;;;11.40;86.60;;;;;;5041291;28;20199;-82
2020/12/17 12:32:20;;;;;;;12.50;5.33;;;11.50;86.70;;;;;;5042774;28;20169;-82
2020/12/17 12:34:46;;;;;;;17.73;6.03;;;11.50;86.90;;;;;;5042396;28;20169;-82
2020/12/17 12:37:12;;;;;;;12.10;5.50;;;11.60;87.00;;;;;;5041866;28;20419;-82
2020/12/17 12:39:38;;;;;;;31.40;7.67;;;11.70;86.40;;;;;;5042153;28;20181;-82
2020/12/17 12:42:06;;;;;;;15.80;7.87;;;11.70;85.80;;;;;;5042601;28;20423;-81
2020/12/17 12:44:32;;;;;;;26.63;8.45;;;11.70;85.60;;;;;;5042706;28;20420;-81